Tupancireta, Brazil
Current Conditions -  °F | °C
As of 8:00 PM on Thursday 18 Dec 2014 (Local Time) from SBSM Reporting Station
Scattered Clouds Scattered Clouds  
Wind Chill: 81°   Ceiling: Unl
Heat Index: 82°   Visibility: 6mi
Dew Point: 64°   Wind: 2mph
Humidity: 58%   Direction: NA
Pressure: 29.8"   Gusts: NA
Location:  29.08°S, 53.84°W
Report Text: SBSM 182200Z VRB02KT 9999 FEW045 SCT070 27/18 Q1009
Loading
Personal Weather Stations






























Interactive Weather Map New forecast layout! Learn more

10-Day Weather Forecast

Advertisements
Track Severe Weather on mobile